Sparta, Ohio
Current Conditions -  °F | °C
As of 3:35 AM on Tuesday 21 Oct 2014 (Local Time) from K4I3 Reporting Station
Overcast Overcast  
Wind Chill: 50°   Ceiling: 1100
Heat Index: 50°   Visibility: 7mi
Dew Point: 50°   Wind: 7mph
Humidity: 100%   Direction: 300°WNW
Pressure: 29.87"   Gusts: NA
Location:  40.39°N, 82.7°W
Report Text: K4I3 210735Z AUTO 30006KT 7SM OVC011 10/10 A2987 RMK AO2
Loading
Personal Weather Stations






























Interactive Weather Map
Tropical Storm Tracking
New forecast layout! Learn more

10-Day Weather Forecast

Advertisements
Track Severe Weather on mobile